createdAt,value
2018-02-14T00:00:26.263Z,-4.10
2018-02-14T00:03:36.564Z,-4.10
2018-02-14T00:06:46.343Z,-4.10
2018-02-14T00:09:56.638Z,-4.20
2018-02-14T00:13:07.841Z,-4.20
2018-02-14T00:16:18.953Z,-4.40
2018-02-14T00:19:29.303Z,-4.40
2018-02-14T00:22:41.384Z,-4.40
2018-02-14T00:25:52.155Z,-4.30
2018-02-14T00:29:02.459Z,-4.30
2018-02-14T00:32:12.468Z,-4.50
2018-02-14T00:35:23.617Z,-4.50
2018-02-14T00:38:33.757Z,-4.50
2018-02-14T00:41:44.309Z,-4.50
2018-02-14T00:44:54.400Z,-4.60
2018-02-14T00:48:05.751Z,-4.50
2018-02-14T00:51:16.599Z,-4.70
2018-02-14T00:54:27.711Z,-4.70
2018-02-14T00:57:38.626Z,-4.70
2018-02-14T01:00:49.483Z,-4.70
2018-02-14T01:04:00.216Z,-4.80
2018-02-14T01:07:10.725Z,-4.80
2018-02-14T01:10:21.056Z,-4.80
2018-02-14T01:13:31.110Z,-4.90
2018-02-14T01:16:41.212Z,-4.80
2018-02-14T01:19:57.021Z,-4.90
2018-02-14T01:23:07.282Z,-5.00
2018-02-14T01:26:17.046Z,-5.00
2018-02-14T01:29:26.964Z,-5.00
2018-02-14T01:32:38.403Z,-5.00
2018-02-14T01:35:49.110Z,-5.00
2018-02-14T01:38:59.288Z,-5.00
2018-02-14T01:42:08.807Z,-5.10
2018-02-14T01:45:18.890Z,-5.10
2018-02-14T01:48:28.627Z,-5.10
2018-02-14T01:51:38.331Z,-5.10
2018-02-14T01:54:48.407Z,-5.10
2018-02-14T01:57:58.662Z,-5.10
2018-02-14T02:01:08.470Z,-5.20
2018-02-14T02:04:18.953Z,-5.10
2018-02-14T02:07:31.860Z,-5.10
2018-02-14T02:10:42.637Z,-5.20
2018-02-14T02:13:53.105Z,-5.30
2018-02-14T02:17:03.002Z,-5.30
2018-02-14T02:20:12.838Z,-5.40
2018-02-14T02:23:22.773Z,-5.30
2018-02-14T02:26:32.573Z,-5.40
2018-02-14T02:29:42.908Z,-5.40
2018-02-14T02:32:53.108Z,-5.50
2018-02-14T02:36:02.858Z,-5.50
2018-02-14T02:39:23.918Z,-5.50
2018-02-14T02:42:35.166Z,-5.60
2018-02-14T02:45:45.449Z,-5.60
2018-02-14T02:48:55.316Z,-5.60
2018-02-14T02:52:05.401Z,-5.60
2018-02-14T02:55:15.951Z,-5.70
2018-02-14T02:58:27.348Z,-5.70
2018-02-14T03:01:37.674Z,-5.70
2018-02-14T03:04:47.860Z,-5.80
2018-02-14T03:07:57.619Z,-5.80
2018-02-14T03:11:07.649Z,-5.90
2018-02-14T03:14:17.730Z,-5.90
2018-02-14T03:17:28.067Z,-6.00
2018-02-14T03:20:38.308Z,-5.90
2018-02-14T03:23:48.858Z,-6.00
2018-02-14T03:26:58.976Z,-6.00
2018-02-14T03:30:08.870Z,-5.90
2018-02-14T03:33:19.528Z,-6.00
2018-02-14T03:36:29.375Z,-6.00
2018-02-14T03:39:40.090Z,-6.00
2018-02-14T03:42:49.920Z,-6.00
2018-02-14T03:45:59.793Z,-6.00
2018-02-14T03:49:10.075Z,-6.00
2018-02-14T03:52:19.913Z,-6.00
2018-02-14T03:55:30.056Z,-6.10
2018-02-14T03:58:40.944Z,-6.10
2018-02-14T04:01:51.922Z,-6.10
2018-02-14T04:05:01.678Z,-6.10
2018-02-14T04:08:12.224Z,-6.10
2018-02-14T04:11:22.756Z,-6.10
2018-02-14T04:14:32.980Z,-6.00
2018-02-14T04:17:42.976Z,-6.00
2018-02-14T04:20:53.005Z,-6.00
2018-02-14T04:24:02.654Z,-6.00
2018-02-14T04:27:13.082Z,-6.00
2018-02-14T04:30:22.797Z,-6.10
2018-02-14T04:33:32.796Z,-6.20
2018-02-14T04:36:42.737Z,-6.20
2018-02-14T04:39:52.760Z,-6.10
2018-02-14T04:43:02.778Z,-6.20
2018-02-14T04:46:12.804Z,-6.30
2018-02-14T04:49:22.817Z,-6.30
2018-02-14T04:52:32.564Z,-6.30
2018-02-14T04:55:42.497Z,-6.20
2018-02-14T04:58:53.480Z,-6.20
2018-02-14T05:02:03.566Z,-6.20
2018-02-14T05:05:13.438Z,-6.20
2018-02-14T05:08:23.353Z,-6.20
2018-02-14T05:11:33.334Z,-6.10
2018-02-14T05:14:43.276Z,-6.20
2018-02-14T05:17:54.034Z,-6.20
2018-02-14T05:21:04.123Z,-6.10
2018-02-14T05:24:14.171Z,-6.20
2018-02-14T05:27:24.138Z,-6.20
2018-02-14T05:30:34.058Z,-6.20
2018-02-14T05:33:44.122Z,-6.30
2018-02-14T05:36:54.092Z,-6.40
2018-02-14T05:40:04.083Z,-6.50
2018-02-14T05:43:14.629Z,-6.50
2018-02-14T05:46:24.377Z,-6.60
2018-02-14T05:49:34.445Z,-6.50
2018-02-14T05:52:44.487Z,-6.60
2018-02-14T05:55:54.407Z,-6.60
2018-02-14T05:59:04.431Z,-6.50
2018-02-14T06:02:14.806Z,-6.60
2018-02-14T06:05:25.206Z,-6.60
2018-02-14T06:08:35.149Z,-6.70
2018-02-14T06:11:45.869Z,-6.70
2018-02-14T06:14:56.050Z,-6.70
2018-02-14T06:18:06.658Z,-6.70
2018-02-14T06:21:16.862Z,-6.70
2018-02-14T06:24:27.568Z,-6.60
2018-02-14T06:27:37.674Z,-6.60
2018-02-14T06:30:47.607Z,-6.60
2018-02-14T06:33:58.254Z,-6.60
2018-02-14T06:37:09.182Z,-6.60
2018-02-14T06:40:19.278Z,-6.60
2018-02-14T06:43:30.039Z,-6.50
2018-02-14T06:46:40.423Z,-6.50
2018-02-14T06:49:50.293Z,-6.50
2018-02-14T06:53:00.143Z,-6.50
2018-02-14T06:56:10.771Z,-6.60
2018-02-14T06:59:21.556Z,-6.60
2018-02-14T07:02:31.706Z,-6.60
2018-02-14T07:05:42.038Z,-6.50
2018-02-14T07:08:52.153Z,-6.50
2018-02-14T07:12:01.965Z,-6.50
2018-02-14T07:15:12.278Z,-6.60
2018-02-14T07:18:22.941Z,-6.50
2018-02-14T07:21:32.789Z,-6.50
2018-02-14T07:24:43.568Z,-6.40
2018-02-14T07:27:54.022Z,-6.40
2018-02-14T07:31:04.591Z,-6.30
2018-02-14T07:34:14.513Z,-6.30
2018-02-14T07:37:25.226Z,-6.20
2018-02-14T07:40:35.555Z,-6.20
2018-02-14T07:43:46.010Z,-6.10
2018-02-14T07:46:56.363Z,-6.10
2018-02-14T07:50:07.018Z,-6.10
2018-02-14T07:53:17.039Z,-6.00
2018-02-14T07:56:27.388Z,-6.00
2018-02-14T07:59:37.130Z,-5.90
2018-02-14T08:02:47.088Z,-5.80
2018-02-14T08:05:57.187Z,-5.70
2018-02-14T08:09:09.615Z,-5.60
2018-02-14T08:12:21.167Z,-5.50
2018-02-14T08:15:32.210Z,-5.50
2018-02-14T08:18:42.328Z,-5.50
2018-02-14T08:21:52.312Z,-5.40
2018-02-14T08:25:03.355Z,-5.20
2018-02-14T08:28:14.365Z,-5.10
2018-02-14T08:31:25.288Z,-5.00
2018-02-14T08:34:36.172Z,-5.00
2018-02-14T08:37:47.240Z,-4.80
2018-02-14T08:40:57.190Z,-4.80
2018-02-14T08:44:07.746Z,-4.70
2018-02-14T08:47:18.968Z,-4.40
2018-02-14T08:50:29.019Z,-4.50
2018-02-14T08:53:39.281Z,-4.30
2018-02-14T08:56:49.406Z,-4.20
2018-02-14T09:00:00.062Z,-4.10
2018-02-14T09:03:10.790Z,-4.00
2018-02-14T09:06:24.413Z,-3.90
2018-02-14T09:09:35.550Z,-3.70
2018-02-14T09:12:45.895Z,-3.70
2018-02-14T09:15:56.899Z,-3.60
2018-02-14T09:19:07.385Z,-3.50
2018-02-14T09:22:20.311Z,-3.30
2018-02-14T09:25:32.562Z,-3.20
2018-02-14T09:28:42.765Z,-3.20
2018-02-14T09:31:52.600Z,-3.10
2018-02-14T09:35:05.238Z,-2.90
2018-02-14T09:38:15.181Z,-2.90
2018-02-14T09:41:25.784Z,-2.80
2018-02-14T09:44:36.114Z,-2.70
2018-02-14T09:47:46.471Z,-2.50
2018-02-14T09:50:57.204Z,-2.40
2018-02-14T09:54:08.319Z,-2.30
2018-02-14T09:57:18.870Z,-2.10
2018-02-14T10:00:28.834Z,-2.00
2018-02-14T10:03:39.190Z,-1.80
2018-02-14T10:06:49.891Z,-1.70
2018-02-14T10:10:00.208Z,-1.60
2018-02-14T10:13:09.963Z,-1.50
2018-02-14T10:16:19.829Z,-1.40
2018-02-14T10:19:29.534Z,-1.30
2018-02-14T10:22:39.668Z,-1.20
2018-02-14T10:25:49.751Z,-1.00
2018-02-14T10:28:59.914Z,-0.90
2018-02-14T10:32:10.378Z,-0.80
2018-02-14T10:35:23.456Z,-0.70
2018-02-14T10:38:34.179Z,-0.60
2018-02-14T10:41:45.129Z,-0.30
2018-02-14T10:44:56.781Z,-0.30
2018-02-14T10:48:08.134Z,-0.30
2018-02-14T10:51:19.276Z,0.00
2018-02-14T10:54:29.610Z,0.00
2018-02-14T10:57:40.622Z,0.20
2018-02-14T11:00:57.393Z,0.30
2018-02-14T11:04:13.937Z,0.30
2018-02-14T11:07:24.601Z,0.50
2018-02-14T11:10:36.194Z,0.70
2018-02-14T11:13:46.290Z,0.70
2018-02-14T11:16:56.069Z,0.90
2018-02-14T11:20:06.164Z,0.90
2018-02-14T11:23:17.367Z,1.00
2018-02-14T11:26:27.293Z,1.00
2018-02-14T11:29:37.462Z,1.10
2018-02-14T11:32:50.350Z,1.30
2018-02-14T11:36:00.567Z,1.20
2018-02-14T11:39:11.450Z,1.60
2018-02-14T11:42:21.328Z,1.60
2018-02-14T11:45:31.918Z,1.70
2018-02-14T11:48:42.036Z,1.70
2018-02-14T11:51:52.843Z,1.80
2018-02-14T11:55:03.394Z,1.90
2018-02-14T11:58:13.174Z,2.00
2018-02-14T12:01:25.598Z,2.00
2018-02-14T12:04:36.241Z,2.10
2018-02-14T12:07:46.272Z,2.10
2018-02-14T12:10:56.209Z,2.20
2018-02-14T12:14:06.460Z,2.20
2018-02-14T12:17:17.179Z,2.30
2018-02-14T12:20:28.182Z,2.30
2018-02-14T12:23:38.898Z,2.40
2018-02-14T12:26:48.903Z,2.40
2018-02-14T12:29:59.542Z,2.40
2018-02-14T12:33:10.125Z,2.50
2018-02-14T12:36:20.348Z,2.60
2018-02-14T12:39:30.103Z,2.70
2018-02-14T12:42:40.713Z,2.70
2018-02-14T12:45:51.235Z,2.80
2018-02-14T12:49:01.720Z,2.80
2018-02-14T12:52:12.150Z,3.00
2018-02-14T12:55:22.197Z,3.00
2018-02-14T12:58:33.457Z,3.00
2018-02-14T13:01:43.309Z,3.00
2018-02-14T13:04:53.962Z,3.00
2018-02-14T13:08:04.324Z,3.00
2018-02-14T13:11:15.177Z,3.00
2018-02-14T13:14:25.367Z,3.00
2018-02-14T13:17:36.014Z,3.00
2018-02-14T13:20:46.219Z,3.00
2018-02-14T13:23:56.204Z,3.10
2018-02-14T13:27:06.418Z,3.10
2018-02-14T13:30:17.239Z,3.20
2018-02-14T13:33:28.489Z,3.20
2018-02-14T13:36:39.528Z,3.30
2018-02-14T13:39:49.685Z,3.30
2018-02-14T13:43:00.626Z,3.30
2018-02-14T13:46:10.551Z,3.30
2018-02-14T13:49:20.738Z,3.30
2018-02-14T13:52:31.802Z,3.40
2018-02-14T13:55:41.793Z,3.40
2018-02-14T13:58:51.499Z,3.40
2018-02-14T14:09:13.160Z,3.50
2018-02-14T14:12:23.269Z,3.50
2018-02-14T14:15:34.014Z,3.70
2018-02-14T14:18:44.381Z,3.70
2018-02-14T14:21:54.525Z,3.80
2018-02-14T14:25:05.649Z,4.10
2018-02-14T14:28:15.676Z,4.10
2018-02-14T14:31:26.936Z,4.20
2018-02-14T14:34:37.676Z,4.40
2018-02-14T14:37:48.707Z,4.70
2018-02-14T14:40:58.583Z,4.70
2018-02-14T14:44:09.178Z,4.90
2018-02-14T14:47:19.167Z,4.90
2018-02-14T14:50:29.279Z,5.00
2018-02-14T14:53:39.262Z,4.70
2018-02-14T14:56:49.225Z,5.10
2018-02-14T15:00:00.241Z,4.90
2018-02-14T15:03:09.986Z,4.80
2018-02-14T15:06:20.689Z,4.30
2018-02-14T15:09:31.957Z,4.20
2018-02-14T15:12:42.378Z,4.20
2018-02-14T15:15:52.377Z,4.00
2018-02-14T15:19:02.399Z,3.90
2018-02-14T15:22:14.043Z,3.50
2018-02-14T15:25:24.810Z,3.10
2018-02-14T15:28:35.493Z,2.90
2018-02-14T15:31:45.391Z,2.70
2018-02-14T15:34:55.497Z,2.50
2018-02-14T15:38:06.059Z,2.30
2018-02-14T15:41:18.768Z,2.10
2018-02-14T15:44:30.044Z,2.10
2018-02-14T15:47:40.911Z,2.00
2018-02-14T15:50:51.218Z,2.00
2018-02-14T15:54:01.345Z,1.80
2018-02-14T15:57:12.473Z,1.80
2018-02-14T16:00:23.468Z,1.60
2018-02-14T16:03:33.846Z,1.60
2018-02-14T16:06:44.124Z,1.50
2018-02-14T16:09:54.950Z,1.50
2018-02-14T16:13:04.464Z,1.40
2018-02-14T16:16:16.181Z,1.20
2018-02-14T16:19:26.927Z,1.20
2018-02-14T16:22:37.392Z,1.10
2018-02-14T16:25:48.832Z,1.00
2018-02-14T16:28:58.605Z,0.90
2018-02-14T16:32:08.944Z,0.80
2018-02-14T16:35:19.180Z,0.70
2018-02-14T16:38:30.225Z,0.70
2018-02-14T16:41:41.708Z,0.50
2018-02-14T16:44:52.367Z,0.50
2018-02-14T16:48:02.537Z,0.40
2018-02-14T16:51:13.636Z,0.40
2018-02-14T16:54:24.359Z,0.30
2018-02-14T16:57:35.388Z,0.30
2018-02-14T17:00:45.812Z,0.20
2018-02-14T17:03:56.147Z,0.20
2018-02-14T17:07:06.991Z,0.10
2018-02-14T17:10:17.485Z,0.00
2018-02-14T17:13:27.434Z,0.00
2018-02-14T17:16:37.673Z,0.00
2018-02-14T17:19:48.821Z,-0.10
2018-02-14T17:22:59.686Z,-0.10
2018-02-14T17:26:10.598Z,-0.10
2018-02-14T17:29:21.684Z,-0.20
2018-02-14T17:32:32.440Z,-0.20
2018-02-14T17:35:42.935Z,-0.30
2018-02-14T17:38:54.409Z,-0.30
2018-02-14T17:42:05.148Z,-0.40
2018-02-14T17:45:15.472Z,-0.50
2018-02-14T17:48:26.036Z,-0.50
2018-02-14T17:51:36.596Z,-0.60
2018-02-14T17:54:47.532Z,-0.80
2018-02-14T17:57:57.636Z,-0.80
2018-02-14T18:01:08.435Z,-1.00
2018-02-14T18:04:18.901Z,-1.00
2018-02-14T18:07:29.870Z,-1.10
2018-02-14T18:10:40.009Z,-1.10
2018-02-14T18:13:49.744Z,-1.30
2018-02-14T18:16:59.654Z,-1.30
2018-02-14T18:20:09.961Z,-1.30
2018-02-14T18:23:20.577Z,-1.50
2018-02-14T18:26:31.338Z,-1.40
2018-02-14T18:29:43.054Z,-1.50
2018-02-14T18:32:53.641Z,-1.60
2018-02-14T18:36:04.003Z,-1.60
2018-02-14T18:39:15.493Z,-1.70
2018-02-14T18:42:25.709Z,-1.70
2018-02-14T18:45:36.152Z,-1.80
2018-02-14T18:48:46.887Z,-1.80
2018-02-14T18:51:57.579Z,-1.80
2018-02-14T18:55:08.217Z,-1.80
2018-02-14T18:58:18.352Z,-1.90
2018-02-14T19:01:29.058Z,-2.00
2018-02-14T19:04:38.974Z,-2.00
2018-02-14T19:07:49.165Z,-2.10
2018-02-14T19:11:00.103Z,-2.20
2018-02-14T19:14:10.799Z,-2.20
2018-02-14T19:17:21.196Z,-2.20
2018-02-14T19:20:31.156Z,-2.30
2018-02-14T19:23:42.008Z,-2.40
2018-02-14T19:26:52.475Z,-2.40
2018-02-14T19:30:04.121Z,-2.30
2018-02-14T19:33:14.505Z,-2.30
2018-02-14T19:36:24.828Z,-2.30
2018-02-14T19:39:34.870Z,-2.30
2018-02-14T19:42:44.871Z,-2.50
2018-02-14T19:45:56.004Z,-2.60
2018-02-14T19:49:06.665Z,-2.70
2018-02-14T19:52:17.150Z,-2.60
2018-02-14T19:55:27.762Z,-2.60
2018-02-14T19:58:38.597Z,-2.60
2018-02-14T20:01:48.732Z,-2.70
2018-02-14T20:04:58.559Z,-2.70
2018-02-14T20:08:08.330Z,-2.70
2018-02-14T20:11:18.423Z,-2.60
2018-02-14T20:17:59.472Z,-2.80
2018-02-14T20:21:09.703Z,-2.80
2018-02-14T20:24:19.604Z,-2.80
2018-02-14T20:27:30.334Z,-2.80
2018-02-14T20:30:41.090Z,-2.90
2018-02-14T20:33:51.842Z,-2.90
2018-02-14T20:37:02.129Z,-2.90
2018-02-14T20:40:13.144Z,-2.90
2018-02-14T20:43:24.094Z,-2.90
2018-02-14T20:46:34.408Z,-3.00
2018-02-14T20:49:45.965Z,-2.90
2018-02-14T20:52:56.330Z,-3.00
2018-02-14T20:56:07.557Z,-3.10
2018-02-14T21:02:57.736Z,-3.20
2018-02-14T21:06:09.166Z,-3.20
2018-02-14T21:09:20.436Z,-3.30
2018-02-14T21:12:31.117Z,-3.30
2018-02-14T21:15:42.171Z,-3.30
2018-02-14T21:18:53.183Z,-3.30
2018-02-14T21:22:04.215Z,-3.30
2018-02-14T21:25:15.243Z,-3.40
2018-02-14T21:28:27.598Z,-3.40
2018-02-14T21:31:38.569Z,-3.40
2018-02-14T21:34:49.722Z,-3.40
2018-02-14T21:38:00.812Z,-3.50
2018-02-14T21:41:14.131Z,-3.50
2018-02-14T21:44:25.193Z,-3.50
2018-02-14T21:47:35.782Z,-3.60
2018-02-14T21:50:47.065Z,-3.60
2018-02-14T21:53:57.352Z,-3.60
2018-02-14T21:57:07.846Z,-3.70
2018-02-14T22:00:18.028Z,-3.70
2018-02-14T22:03:29.206Z,-3.70
2018-02-14T22:06:40.575Z,-3.80
2018-02-14T22:09:50.899Z,-3.80
2018-02-14T22:13:01.320Z,-3.80
2018-02-14T22:16:11.691Z,-3.80
2018-02-14T22:19:22.371Z,-3.90
2018-02-14T22:22:33.495Z,-3.80
2018-02-14T22:25:44.759Z,-3.80
2018-02-14T22:28:55.935Z,-3.80
2018-02-14T22:32:06.970Z,-3.90
2018-02-14T22:35:17.860Z,-3.90
2018-02-14T22:38:27.714Z,-3.90
2018-02-14T22:41:37.692Z,-3.90
2018-02-14T22:44:47.714Z,-4.00
2018-02-14T22:47:57.526Z,-4.00
2018-02-14T22:51:07.824Z,-4.00
2018-02-14T22:54:19.521Z,-4.10
2018-02-14T22:57:30.011Z,-4.10
2018-02-14T23:00:40.329Z,-4.10
2018-02-14T23:03:51.618Z,-4.20
2018-02-14T23:07:02.583Z,-4.20
2018-02-14T23:10:16.391Z,-4.20
2018-02-14T23:13:26.461Z,-4.20
2018-02-14T23:16:36.329Z,-4.20
2018-02-14T23:19:46.882Z,-4.20
2018-02-14T23:22:57.489Z,-4.20
2018-02-14T23:26:07.533Z,-4.20
2018-02-14T23:29:18.170Z,-4.20
2018-02-14T23:32:29.256Z,-4.20
2018-02-14T23:35:39.493Z,-4.20
2018-02-14T23:38:50.868Z,-4.30
2018-02-14T23:42:01.529Z,-4.30
2018-02-14T23:45:11.989Z,-4.40
2018-02-14T23:48:22.817Z,-4.40
2018-02-14T23:51:32.873Z,-4.40
2018-02-14T23:54:42.784Z,-4.50
2018-02-14T23:57:53.009Z,-4.50
